Weather Top, Arizona (BMGR) Weather observations

Data are for 10 minute period ending at time listed.
 Day   Time   Solar   Ave.   Ave.  Ave.  Vector  Max.   Total    
  of    of     Rad.   Air    Rel.  Wind   Wind   Wind  Precip.   
Year   Day            Temp.  Hum.  Speed  Dir.   Gust            
2026   (MST)  Kw/m2    F      %     mph   deg.    mph    in.     
-----------------------------------------------------------------
 246   21:35   0.00   84.9    41    8.9   206    16.0    0.00 
 246   21:40   0.00   84.7    42    8.9   202    13.8    0.00 
 246   21:45   0.00   84.6    42    7.3   197    13.3    0.00 
 246   21:50   0.00   84.5    43    8.0   201    13.8    0.00 
 246   21:55   0.00   84.3    43    8.1   200    15.5    0.00 
 246   22:00   0.00   84.3    44    8.3   208    15.5    0.00 
 246   22:05   0.00   84.2    44    8.3   214    13.8    0.00 
 246   22:10   0.00   84.1    44    7.7   210    12.7    0.00 
 246   22:15   0.00   84.0    45    8.8   212    15.5    0.00 
 246   22:20   0.00   84.0    45    8.3   214    13.3    0.00 
 246   22:25   0.00   83.8    46    8.3   216    14.4    0.00 
 246   22:30   0.00   83.8    46    8.9   209    16.6    0.00 
 246   22:35   0.00   83.7    46    8.7   214    14.4    0.00 
 246   22:40   0.00   83.5    46    7.6   210    12.1    0.00 
 246   22:45   0.00   83.4    47    8.9   198    14.4    0.00 
 246   22:50   0.00   83.2    47    7.8   192    14.4    0.00 
 246   22:55   0.00   83.0    47    7.5   192    12.1    0.00 
 246   23:00   0.00   82.7    48    6.2   176    10.5    0.00 
 246   23:05   0.00   81.1    52    6.7   125     9.9    0.00 
 246   23:10   0.00   80.6    53    6.5   130    11.6    0.00 
 246   23:15   0.00   80.7    53    6.2   130    11.0    0.00 
 246   23:20   0.00   80.4    54    7.6   126    12.7    0.00 
 246   23:25   0.00   80.2    55    5.7   151    11.0    0.00 
 246   23:30   0.00   80.4    54    6.8   154    13.8    0.00 
 246   23:35   0.00   81.3    53    8.9   177    14.4    0.00 
 246   23:40   0.00   81.6    53    9.2   164    14.4    0.00 
 246   23:45   0.00   81.4    54    8.4   166    16.6    0.00 
 246   23:50   0.00   81.4    54    9.4   176    16.0    0.00 
 246   23:55   0.00   81.4    54   10.6   178    16.0    0.00 
 247    0:00   0.00   81.3    54    9.0   177    14.4    0.00 
 247    0:05   0.00   81.1    54    6.9   165    16.0    0.00 
 247    0:10   0.00   81.0    54    8.8   178    16.6    0.00 
 247    0:15   0.00   81.1    54    8.1   162    16.0    0.00 
 247    0:20   0.00   81.1    54    7.3   168    14.9    0.00 
 247    0:25   0.00   80.4    56    9.3   123    16.6    0.00 
 247    0:30   0.00   79.5    58    9.8   123    13.8    0.00 
 247    0:35   0.00   79.4    59    9.3   124    16.6    0.00 
 247    0:40   0.00   79.5    59   10.0   127    16.0    0.00 
 247    0:45   0.00   79.4    59   10.3   128    16.0    0.00 
 247    0:50   0.00   79.1    60    8.8   128    14.9    0.00 
 247    0:55   0.00   78.9    61    8.1   126    12.7    0.00 
 247    1:00   0.00   78.9    61    9.0   126    14.9    0.00 
 247    1:05   0.00   79.0    61    9.6   141    18.3    0.00 
 247    1:10   0.00   79.8    60    8.8   160    16.0    0.00 
 247    1:15   0.00   80.1    60    9.6   156    16.0    0.00 
 247    1:20   0.00   80.1    60    7.8   156    16.0    0.00 
 247    1:25   0.00   79.7    61    8.3   125    16.6    0.00 
 247    1:30   0.00   78.5    63    8.9   126    14.9    0.00 
 247    1:35   0.00   79.1    62    9.1   149    16.0    0.00 
 247    1:40   0.00   79.4    62    7.5   147    14.9    0.00 
 247    1:45   0.00   79.6    62    9.6   166    14.9    0.00 
 247    1:50   0.00   79.6    62    7.4   145    14.4    0.00 
 247    1:55   0.00   79.2    63    7.3   131    13.8    0.00 
 247    2:00   0.00   78.5    64    9.6   122    13.8    0.00 
 247    2:05   0.00   78.2    65    7.7   135    12.7    0.00 
 247    2:10   0.00   78.8    64    9.9   164    17.2    0.00 
 247    2:15   0.00   79.3    63   10.3   168    18.3    0.00 
 247    2:20   0.00   79.2    64    8.8   168    17.7    0.00 
 247    2:25   0.00   78.9    64    7.3   131    11.6    0.00 
 247    2:30   0.00   77.8    66    8.3   119    13.8    0.00 
 247    2:35   0.00   77.2    68    7.1   119    12.1    0.00 
 247    2:40   0.00   77.3    68    7.1   135    12.1    0.00 
 247    2:45   0.00   77.4    68    7.6   127    13.8    0.00 
 247    2:50   0.00   77.1    68    8.0   124    13.8    0.00 
 247    2:55   0.00   77.0    68    8.0   128    16.6    0.00 
 247    3:00   0.00   77.1    68    7.3   133    12.7    0.00 
 247    3:05   0.00   77.0    68    6.8   134    11.6    0.00 
 247    3:10   0.00   77.1    68    7.4   127    12.7    0.00 
 247    3:15   0.00   77.3    68    7.5   128    11.6    0.00 
 247    3:20   0.00   77.1    68    8.5   122    13.3    0.00 
 247    3:25   0.00   77.0    68    8.6   123    12.1    0.00 
 247    3:30   0.00   76.8    69    7.8   122    11.0    0.00 
 247    3:35   0.00   76.6    70    7.0   123    11.0    0.00 
 247    3:40   0.00   76.7    70    7.9   120    14.4    0.00 
 247    3:45   0.00   76.4    70    8.1   123    12.7    0.00 
 247    3:50   0.00   76.5    70   10.0   118    14.4    0.00 
 247    3:55   0.00   76.3    71   10.1   119    15.5    0.00 
 247    4:00   0.00   76.5    70   10.6   120    14.9    0.00 
 247    4:05   0.00   76.7    70   11.1   118    15.5    0.00 
 247    4:10   0.00   76.8    70   10.0   118    14.9    0.00 
 247    4:15   0.00   76.9    70   11.6   116    15.5    0.00 
 247    4:20   0.00   76.9    70   11.3   122    17.7    0.00 
 247    4:25   0.00   76.8    70   11.4   122    15.5    0.00 
 247    4:30   0.00   76.9    70   11.7   116    18.9    0.00 
 247    4:35   0.00   77.1    69   11.3   125    18.9    0.00 
 247    4:40   0.00   77.1    69   10.9   123    16.6    0.00 
 247    4:45   0.00   76.9    69   11.7   118    18.9    0.00 
 247    4:50   0.00   77.0    69   13.8   124    20.5    0.00 
 247    4:55   0.00   76.9    70   12.4   120    18.3    0.00 
 247    5:00   0.00   76.8    70   14.3   120    25.6    0.00 
 247    5:05   0.00   76.5    71   13.1   120    20.5    0.00 
 247    5:10   0.00   76.1    72   12.2   120    18.3    0.00 
 247    5:15   0.00   76.3    71   12.9   120    20.5    0.00 
 247    5:20   0.00   76.3    71   12.3   121    17.2    0.00 
 247    5:25   0.00   76.3    71   13.3   119    20.0    0.00 
 247    5:30   0.00   76.3    71   12.4   119    17.7    0.00 
 247    5:35   0.00   76.4    71   14.1   118    22.8    0.00 
 247    5:40   0.00   76.4    71   14.3   117    21.1    0.00 
 247    5:45   0.00   76.1    72   13.3   114    18.9    0.00 
 247    5:50   0.00   75.9    73   12.3   119    17.7    0.00 
 247    5:55   0.00   75.9    73   12.5   125    17.2    0.00 
 247    6:00   0.00   75.8    73   11.4   119    19.4    0.00 
 247    6:05   0.00   76.1    71    8.5   133    15.5    0.00 
 247    6:10   0.00   76.5    69    5.9   121    11.6    0.00 
 247    6:15   0.01   76.3    70    3.5   183     9.3    0.00 
 247    6:20   0.02   76.3    70    7.3   113    14.9    0.00 
 247    6:25   0.04   76.5    70   10.0   117    15.5    0.00 
 247    6:30   0.05   76.6    70    8.0   117    13.3    0.00 
 247    6:35   0.06   76.5    70    8.9   117    14.9    0.00 
 247    6:40   0.07   76.6    70    8.6   119    12.7    0.00 
 247    6:45   0.09   76.8    69    8.6   120    13.8    0.00 
 247    6:50   0.10   76.9    69    9.2   116    12.7    0.00 
 247    6:55   0.12   76.9    69   10.2   115    13.8    0.00 
 247    7:00   0.13   76.7    70   11.3   111    16.0    0.00 
 247    7:05   0.15   76.7    70   11.0   114    16.6    0.00 
 247    7:10   0.16   76.8    71   12.0   122    17.7    0.00 
 247    7:15   0.18   76.9    70   10.2   121    14.9    0.00 
 247    7:20   0.19   77.3    69    9.0   124    13.8    0.00 
 247    7:25   0.21   77.6    68    9.4   122    13.8    0.00 
 247    7:30   0.23   78.4    64   10.2   118    14.9    0.00 
 247    7:35   0.24   78.1    67   11.4   115    17.2    0.00 
 247    7:40   0.26   78.1    67   10.6   116    14.9    0.00 
 247    7:45   0.28   78.8    64   10.2   111    14.4    0.00 
 247    7:50   0.29   78.9    64   10.8   114    15.5    0.00 
 247    7:55   0.31   79.0    64   10.1   118    13.8    0.00 
 247    8:00   0.33   79.2    63   11.3   118    15.5    0.00 
 247    8:05   0.35   79.5    63    9.6   117    13.8    0.00 
 247    8:10   0.36   79.4    63   11.2   121    17.2    0.00 
 247    8:15   0.38   79.4    62   12.6   120    17.7    0.00 
 247    8:20   0.39   79.4    63   11.8   122    16.6    0.00 
 247    8:25   0.41   79.6    64   11.1   120    15.5    0.00 
 247    8:30   0.43   79.6    64   11.5   120    17.2    0.00 
 247    8:35   0.44   79.8    64   11.7   119    16.6    0.00 
 247    8:40   0.46   80.2    63   11.8   123    16.0    0.00 
 247    8:45   0.48   80.6    62   11.9   124    17.7    0.00 
 247    8:50   0.49   81.0    61   11.2   122    16.0    0.00 
 247    8:55   0.51   81.1    60   11.5   123    16.6    0.00 
 247    9:00   0.52   81.3    59   12.1   126    17.2    0.00 
 247    9:05   0.54   82.0    55   12.1   125    17.2    0.00 
 247    9:10   0.56   82.4    55   11.2   122    17.2    0.00 
 247    9:15   0.57   82.9    54    9.3   133    16.0    0.00 
 247    9:20   0.58   83.8    49   10.2   135    17.2    0.00 
 247    9:25   0.60   83.7    50   10.8   132    17.2    0.00 
 247    9:30   0.61   83.3    53   10.6   118    14.9    0.00 
 247    9:35   0.62   83.6    52    9.8   128    18.3    0.00 
 247    9:40   0.64   85.8    44    6.3   170    12.7    0.00 
 247    9:45   0.65   86.4    42    9.2   183    15.5    0.00 
 247    9:50   0.66   85.9    43    7.2   196    18.3    0.00 
 247    9:55   0.68   86.1    43    8.2   194    15.5    0.00 
 247   10:00   0.69   86.6    42   11.5   183    18.3    0.00 
 247   10:05   0.70   86.5    41    9.2   199    15.5    0.00 
 247   10:10   0.71   86.2    43    9.6   202    17.2    0.00 
 247   10:15   0.72   86.3    42    8.8   195    15.5    0.00 
 247   10:20   0.73   86.9    42    9.3   185    15.5    0.00 
 247   10:25   0.74   87.1    42    9.2   187    16.0    0.00 
 247   10:30   0.75   87.7    41    8.5   198    15.5    0.00 
 247   10:35   0.76   87.6    39   10.3   202    15.5    0.00 
 247   10:40   0.77   87.8    39    9.4   209    17.7    0.00 
 247   10:45   0.78   87.9    39   10.2   202    17.2    0.00 
 247   10:50   0.79   88.2    38    8.7   217    15.5    0.00 
 247   10:55   0.80   88.5    38    6.8   205    11.6    0.00 
 247   11:00   0.81   88.4    38    8.4   197    16.0    0.00 
 247   11:05   0.81   89.4    37    6.4   179    14.9    0.00 
 247   11:10   0.82   90.1    37    6.8   187    12.1    0.00 
 247   11:15   0.82   90.5    36    6.6   176    13.3    0.00 
 247   11:20   0.83   91.1    36    6.0   167    13.3    0.00 
 247   11:25   0.84   90.7    34    8.1   212    16.0    0.00 
 247   11:30   0.84   90.2    34    9.3   230    14.4    0.00 
 247   11:35   0.85   90.7    31    8.3   208    16.6    0.00 
 247   11:40   0.85   91.5    29   10.7   200    18.3    0.00 
 247   11:45   0.81   90.9    28    9.4   212    14.4    0.00 
 247   11:50   0.87   91.0    28   10.7   204    16.0    0.00 
 247   11:55   0.77   91.8    29    7.1   196    17.2    0.00 
 247   12:00   0.87   92.5    28   10.8   211    18.9    0.00 
 247   12:05   0.88   91.7    29    8.8   212    17.7    0.00 
 247   12:10   0.89   91.7    29   11.1   196    20.0    0.00 
 247   12:15   0.88   92.0    29    9.5   219    16.0    0.00 
 247   12:20   0.90   92.1    30    6.7   224    13.3    0.00 
 247   12:25   0.90   93.0    29    7.9   194    14.4    0.00 
 247   12:30   0.91   93.1    28    6.8   191    12.7    0.00 
 247   12:35   0.93   94.4    28    8.5   180    13.8    0.00 
 247   12:40   0.94   93.8    28    8.4   220    13.3    0.00 
 247   12:45   0.94   93.0    28   10.4   194    16.0    0.00 
 247   12:50   0.91   93.2    28    8.6   175    13.8    0.00 
 247   12:55   0.90   96.1    25    5.5    82     9.9    0.00 
 247   13:00   0.90   97.3    24    8.3   236    16.6    0.00 
 247   13:05   0.90   93.6    26    8.4   237    16.0    0.00 
 247   13:10   0.90   92.9    27    6.3   224    15.5    0.00 
 247   13:15   0.92   93.8    26   10.5   234    17.2    0.00 
 247   13:20   0.72   94.6    26    8.6   225    14.9    0.00 
 247   13:25   0.74   93.8    27    7.2   200    14.4    0.00 
 247   13:30   0.89   95.3    26    5.3   206    12.1    0.00 
 247   13:35   0.90   96.6    25    5.6   172    13.8    0.00 
 247   13:40   0.89   96.2    25    8.8   215    14.4    0.00 
 247   13:45   0.38   94.5    26    5.7   213    13.3    0.00 
 247   13:50   0.67   94.4    26    8.7   208    15.5    0.00 
 247   13:55   0.39   92.8    27    7.7   207    12.7    0.00 
 247   14:00   0.90   94.1    25    5.8   209    11.0    0.00 
 247   14:05   0.93   95.2    25    6.9   228    12.7    0.00 
 247   14:10   0.90   96.6    24    9.3   214    17.7    0.00 
 247   14:15   0.85   94.6    25   11.1   239    16.6    0.00 
 247   14:20   0.83   94.3    27    9.9   234    17.2    0.00 
 247   14:25   0.78   95.4    26    5.0   174    10.5    0.00 
 247   14:30   0.83   98.9    23    5.1   102    11.6    0.00 
 247   14:35   0.79   99.0    22    5.2    93    11.0    0.00 
 247   14:40   0.77   97.3    24    5.1    92    11.0    0.00 
 247   14:45   0.76   96.7    24    7.8   219    13.3    0.00 
 247   14:50   0.61   96.0    24    9.0   219    17.7    0.00 
 247   14:55   0.57   94.7    25    5.3   234    12.7    0.00 
 247   15:00   0.71   95.3    25   10.0   216    14.4    0.00 
 247   15:05   0.71   96.1    25    8.1   213    15.5    0.00 
 247   15:10   0.70   96.6    25    7.3   193    16.0    0.00 
 247   15:15   0.69   96.9    25    5.2   170     9.9    0.00 
 247   15:20   0.68   96.6    25    9.4   190    17.2    0.00 
 247   15:25   0.62   95.9    25   11.1   228    17.2    0.00 
 247   15:30   0.36   95.1    25    8.5   218    13.3    0.00 
 247   15:35   0.39   94.4    26    8.4   237    13.8    0.00 
 247   15:40   0.60   94.6    26    8.2   224    16.0    0.00 
 247   15:45   0.18   95.0    27    7.5   200    14.9    0.00 
 247   15:50   0.18   93.1    27    8.6   218    16.0    0.00 
 247   15:55   0.58   93.1    28   10.6   235    17.7    0.00 
 247   16:00   0.47   94.3    27    8.8   217    16.0    0.00 
 247   16:05   0.12   93.0    29    8.8   235    13.3    0.00 
 247   16:10   0.29   92.5    29    8.4   228    13.3    0.00 
 247   16:15   0.50   93.4    29    9.9   215    17.2    0.00 
 247   16:20   0.25   93.1    29    9.5   225    17.7    0.00 
 247   16:25   0.29   92.9    29    7.5   212    13.3    0.00 
 247   16:30   0.47   94.3    28   10.1   221    17.2    0.00 
 247   16:35   0.47   93.7    28    9.2   226    15.5    0.00 
 247   16:40   0.42   94.8    27    6.7   221    12.7    0.00 
 247   16:45   0.39   94.9    26    8.9   236    15.5    0.00 
 247   16:50   0.37   94.9    26    5.6   117    12.1    0.00 
 247   16:55   0.34   94.5    26    8.1   206    16.6    0.00 
 247   17:00   0.27   94.0    27    6.6   192    11.6    0.00 
 247   17:05   0.32   94.6    26    5.4   118     9.3    0.00 
 247   17:10   0.30   94.1    26    5.3   101    10.5    0.00 
 247   17:15   0.27   94.2    26    6.0   177    14.9    0.00 
 247   17:20   0.25   93.5    26    6.2   139    13.3    0.00 
 247   17:25   0.24   93.7    26    5.6    73    11.6    0.00 
 247   17:30   0.22   93.5    26    5.3   183    11.0    0.00 
 247   17:35   0.21   93.2    26    8.8   235    14.4    0.00 
 247   17:40   0.19   92.3    27    8.3   220    12.7    0.00 
 247   17:45   0.18   93.1    26    7.6   212    12.7    0.00 
 247   17:50   0.16   93.0    26    6.7   223    12.1    0.00 
 247   17:55   0.15   92.6    26    5.9   193    14.4    0.00 
 247   18:00   0.13   92.3    26    6.6   226    12.7    0.00 
 247   18:05   0.12   92.1    26    5.1    91    11.6    0.00 
 247   18:10   0.10   92.0    27    4.5   139     8.8    0.00 
 247   18:15   0.09   92.2    27    4.2   181     8.8    0.00 
 247   18:20   0.07   91.8    28    6.4   222    12.1    0.00 
 247   18:25   0.05   91.0    29    7.2   222    14.4    0.00 
 247   18:30   0.05   90.2    30   10.4   233    16.6    0.00 
 247   18:35   0.02   89.5    30   10.9   227    19.4    0.00 
 247   18:40   0.01   89.3    30    9.1   230    13.8    0.00 
 247   18:45   0.01   89.2    30    9.1   229    12.7    0.00 
 247   18:50   0.01   89.0    30    9.9   226    15.5    0.00 
 247   18:55   0.00   88.7    31    9.1   235    14.4    0.00 
 247   19:00   0.00   88.4    31    9.2   232    14.4    0.00 
 247   19:05   0.00   88.1    32    9.8   230    15.5    0.00 
 247   19:10   0.00   88.1    32    8.2   228    11.6    0.00 
 247   19:15   0.00   88.0    32    7.9   227    15.5    0.00 
 247   19:20   0.00   87.8    32    8.8   227    15.5    0.00 
 247   19:25   0.00   87.6    32    8.8   230    12.1    0.00 
 247   19:30   0.00   87.4    32    8.2   231    12.1    0.00 
 247   19:35   0.00   87.3    33    8.3   230    13.8    0.00 
 247   19:40   0.00   87.2    33    9.6   230    15.5    0.00 
 247   19:45   0.00   87.0    33    9.5   237    12.7    0.00 
 247   19:50   0.00   86.9    34    8.7   230    12.7    0.00 
 247   19:55   0.00   86.7    34    8.2   229    12.7    0.00 
 247   20:00   0.00   86.5    34    8.6   228    13.3    0.00 
 247   20:05   0.00   86.3    35    8.0   228    13.3    0.00 
 247   20:10   0.00   86.1    35    6.9   212    11.6    0.00 
 247   20:15   0.00   86.0    36    7.5   227    13.3    0.00 
 247   20:20   0.00   85.8    36    6.1   223    10.5    0.00 
 247   20:25   0.00   85.7    36    7.0   230    12.1    0.00 
 247   20:30   0.00   85.6    36    7.7   230    12.7    0.00 
 247   20:35   0.00   85.6    36    8.9   233    11.6    0.00 
 247   20:40   0.00   85.5    36    8.5   223    12.7    0.00 
 247   20:45   0.00   85.4    36    8.0   226    12.7    0.00 
 247   20:50   0.00   85.3    36    7.3   223    11.6    0.00 
 247   20:55   0.00   85.2    36    6.9   224    16.0    0.00 
 247   21:00   0.00   85.1    36    6.4   222    13.3    0.00 
 247   21:05   0.00   85.0    36    5.6   224     9.9    0.00 
 247   21:10   0.00   84.9    36    6.1   230    12.7    0.00 
 247   21:15   0.00   84.8    36    6.1   219    12.7    0.00 
 247   21:20   0.00   84.8    36    5.7   212     8.8    0.00 
 247   21:25   0.00   84.7    36    6.4   223    13.3    0.00 
 247   21:30   0.00   84.6    36    6.7   217    13.8    0.00 

Return to Weather Top graphs page.


Western Regional Climate Center,wrcc@dri.edu